createdAt,value
2022-08-26T00:00:45.738Z,10.1
2022-08-26T00:02:02.022Z,10.1
2022-08-26T00:03:17.331Z,10.3
2022-08-26T00:04:33.630Z,9.6
2022-08-26T00:05:49.926Z,10.6
2022-08-26T00:07:06.223Z,10
2022-08-26T00:08:22.506Z,9.8
2022-08-26T00:09:38.812Z,10.2
2022-08-26T00:10:55.090Z,10
2022-08-26T00:12:11.397Z,11
2022-08-26T00:13:27.680Z,10.8
2022-08-26T00:14:43.966Z,10.1
2022-08-26T00:16:00.262Z,9.2
2022-08-26T00:17:16.562Z,9.9
2022-08-26T00:18:32.863Z,10
2022-08-26T00:19:48.169Z,10.2
2022-08-26T00:21:04.461Z,10.7
2022-08-26T00:22:20.740Z,10.9
2022-08-26T00:23:37.053Z,10.2
2022-08-26T00:24:53.349Z,10.2
2022-08-26T00:26:09.634Z,10.5
2022-08-26T00:27:25.926Z,9.7
2022-08-26T00:28:42.225Z,10.7
2022-08-26T00:29:58.505Z,10.3
2022-08-26T00:31:14.805Z,10.2
2022-08-26T00:32:31.098Z,10.7
2022-08-26T00:33:47.379Z,10
2022-08-26T00:35:03.692Z,9.8
2022-08-26T00:36:18.989Z,10
2022-08-26T00:37:35.285Z,10.9
2022-08-26T00:38:51.568Z,10.4
2022-08-26T00:40:07.892Z,10
2022-08-26T00:41:24.155Z,10.5
2022-08-26T00:42:40.465Z,9.4
2022-08-26T00:43:56.752Z,9.9
2022-08-26T00:45:13.045Z,10.5
2022-08-26T00:46:29.330Z,10.1
2022-08-26T00:47:45.633Z,10.3
2022-08-26T00:49:01.914Z,10.3
2022-08-26T00:50:18.210Z,10.1
2022-08-26T00:51:34.501Z,10.3
2022-08-26T00:52:49.822Z,10.3
2022-08-26T00:54:06.099Z,11
2022-08-26T00:55:22.412Z,11.1
2022-08-26T00:56:38.702Z,11.1
2022-08-26T00:57:55.001Z,11.5
2022-08-26T00:59:11.298Z,9.8
2022-08-26T01:00:27.561Z,10.1
2022-08-26T01:01:43.854Z,10.2
2022-08-26T01:03:00.172Z,10.6
2022-08-26T01:04:16.460Z,10
2022-08-26T01:05:32.758Z,10.6
2022-08-26T01:06:49.042Z,10.2
2022-08-26T01:08:05.330Z,10.1
2022-08-26T01:09:20.631Z,10.5
2022-08-26T01:10:36.933Z,10.1
2022-08-26T01:11:53.225Z,10
2022-08-26T01:13:09.513Z,10.2
2022-08-26T01:14:25.817Z,10.3
2022-08-26T01:15:42.096Z,10.9
2022-08-26T01:16:58.408Z,10.5
2022-08-26T01:18:14.686Z,11
2022-08-26T01:19:30.984Z,10.4
2022-08-26T01:20:47.268Z,10.2
2022-08-26T01:22:03.570Z,10.6
2022-08-26T01:23:19.865Z,10.3
2022-08-26T01:24:36.150Z,9.8
2022-08-26T01:25:51.465Z,10.7
2022-08-26T01:27:07.758Z,10.8
2022-08-26T01:28:24.049Z,10.8
2022-08-26T01:29:40.337Z,10.7
2022-08-26T01:30:56.633Z,10.6
2022-08-26T01:32:12.933Z,11.3
2022-08-26T01:33:28.242Z,10.9
2022-08-26T01:34:44.541Z,11.3
2022-08-26T01:36:00.832Z,10.8
2022-08-26T01:37:17.117Z,11.7
2022-08-26T01:38:33.433Z,11.5
2022-08-26T01:39:49.706Z,12
2022-08-26T01:41:06.012Z,11.6
2022-08-26T01:42:22.298Z,11.7
2022-08-26T01:43:38.600Z,10.9
2022-08-26T01:44:54.886Z,11.3
2022-08-26T01:46:11.179Z,11.2
2022-08-26T01:47:27.463Z,11.8
2022-08-26T01:48:43.774Z,11.4
2022-08-26T01:49:59.070Z,11.1
2022-08-26T01:51:15.375Z,11.8
2022-08-26T01:52:31.649Z,11.6
2022-08-26T01:53:47.952Z,11.4
2022-08-26T01:55:04.236Z,12.1
2022-08-26T01:56:20.533Z,11.3
2022-08-26T01:57:36.836Z,10.7
2022-08-26T01:58:53.134Z,11.6
2022-08-26T02:00:09.427Z,10.8
2022-08-26T02:01:25.716Z,11.3
2022-08-26T02:02:42.013Z,11.7
2022-08-26T02:03:58.309Z,11.7
2022-08-26T02:05:14.586Z,11.3
2022-08-26T02:06:29.916Z,12.1
2022-08-26T02:07:46.189Z,11.8
2022-08-26T02:09:02.492Z,11.8
2022-08-26T02:10:18.770Z,11.4
2022-08-26T02:11:35.078Z,11.6
2022-08-26T02:12:51.356Z,12.1
2022-08-26T02:14:07.654Z,11.7
2022-08-26T02:15:23.968Z,11.5
2022-08-26T02:16:40.253Z,11.9
2022-08-26T02:17:56.529Z,11.4
2022-08-26T02:19:12.825Z,11.7
2022-08-26T02:20:29.130Z,11.1
2022-08-26T02:21:45.427Z,11.6
2022-08-26T02:23:00.723Z,11.7
2022-08-26T02:24:17.026Z,12.6
2022-08-26T02:25:33.326Z,12.1
2022-08-26T02:26:49.606Z,11.6
2022-08-26T02:28:05.898Z,12.1
2022-08-26T02:29:22.193Z,12
2022-08-26T02:30:38.000Z,12.2
2022-08-26T02:31:54.790Z,12.5
2022-08-26T02:33:11.075Z,11.4
2022-08-26T02:34:27.379Z,11.9
2022-08-26T02:35:43.667Z,12.2
2022-08-26T02:36:59.954Z,11.2
2022-08-26T02:38:16.252Z,11
2022-08-26T02:39:31.555Z,12
2022-08-26T02:40:47.871Z,11.7
2022-08-26T02:42:04.152Z,11.1
2022-08-26T02:43:20.440Z,11.8
2022-08-26T02:44:36.733Z,11.2
2022-08-26T02:45:53.041Z,11.6
2022-08-26T02:47:09.331Z,12.3
2022-08-26T02:48:25.625Z,11.4
2022-08-26T02:49:41.904Z,11.7
2022-08-26T02:50:58.196Z,12.2
2022-08-26T02:52:14.488Z,11.8
2022-08-26T02:53:30.790Z,11
2022-08-26T02:54:47.102Z,11.7
2022-08-26T02:56:02.399Z,11.2
2022-08-26T02:57:18.683Z,11.1
2022-08-26T02:58:34.976Z,11
2022-08-26T02:59:51.268Z,11.9
2022-08-26T03:01:07.560Z,11.5
2022-08-26T03:02:23.867Z,11.7
2022-08-26T03:03:40.148Z,11.3
2022-08-26T03:04:56.444Z,11.5
2022-08-26T03:06:12.743Z,11.2
2022-08-26T03:07:29.026Z,12
2022-08-26T03:08:45.327Z,13.7
2022-08-26T03:10:01.612Z,13.7
2022-08-26T03:11:17.917Z,14
2022-08-26T03:12:33.251Z,13.3
2022-08-26T03:13:49.509Z,13.4
2022-08-26T03:15:05.803Z,14.6
2022-08-26T03:16:22.108Z,12.9
2022-08-26T03:17:38.407Z,13.1
2022-08-26T03:18:54.693Z,12.3
2022-08-26T03:20:10.996Z,12.1
2022-08-26T03:21:27.287Z,12.3
2022-08-26T03:22:43.570Z,12
2022-08-26T03:23:59.875Z,12.6
2022-08-26T03:25:16.163Z,12.9
2022-08-26T03:26:32.448Z,12.7
2022-08-26T03:27:48.744Z,12.6
2022-08-26T03:29:04.048Z,13
2022-08-26T03:30:20.352Z,12.5
2022-08-26T03:31:36.642Z,12.3
2022-08-26T03:32:52.926Z,12.4
2022-08-26T03:34:09.233Z,12.4
2022-08-26T03:35:25.524Z,12.1
2022-08-26T03:36:41.808Z,13
2022-08-26T03:37:58.116Z,12.5
2022-08-26T03:39:14.408Z,12.1
2022-08-26T03:40:30.689Z,13.1
2022-08-26T03:41:46.991Z,13.1
2022-08-26T03:43:03.223Z,13.1
2022-08-26T03:44:19.529Z,12.7
2022-08-26T03:45:34.839Z,13
2022-08-26T03:46:51.084Z,14.1
2022-08-26T03:48:07.375Z,13.1
2022-08-26T03:49:23.665Z,13.4
2022-08-26T03:50:39.975Z,13.1
2022-08-26T03:51:56.206Z,13.8
2022-08-26T03:53:12.528Z,13.2
2022-08-26T03:54:28.810Z,13.2
2022-08-26T03:55:45.064Z,13.4
2022-08-26T03:57:01.301Z,14.3
2022-08-26T03:58:17.535Z,13.2
2022-08-26T03:59:33.783Z,13.3
2022-08-26T04:00:50.008Z,13.4
2022-08-26T04:02:05.267Z,12.5
2022-08-26T04:03:21.514Z,14.9
2022-08-26T04:04:37.750Z,13.9
2022-08-26T04:05:53.997Z,13.4
2022-08-26T04:07:10.222Z,13.4
2022-08-26T04:08:26.482Z,13.6
2022-08-26T04:09:42.706Z,13.6
2022-08-26T04:10:58.959Z,14.2
2022-08-26T04:12:15.197Z,15.1
2022-08-26T04:13:31.438Z,13.7
2022-08-26T04:14:47.658Z,15.2
2022-08-26T04:16:03.927Z,14.8
2022-08-26T04:17:20.136Z,15.5
2022-08-26T04:18:35.405Z,15.2
2022-08-26T04:19:51.641Z,13.8
2022-08-26T04:21:07.879Z,13.4
2022-08-26T04:22:24.126Z,14.3
2022-08-26T04:23:40.384Z,13.8
2022-08-26T04:24:56.602Z,14.8
2022-08-26T04:26:12.836Z,14
2022-08-26T04:27:29.074Z,14.9
2022-08-26T04:28:45.327Z,14.5
2022-08-26T04:30:01.562Z,14.1
2022-08-26T04:31:17.796Z,14.1
2022-08-26T04:32:34.032Z,14.1
2022-08-26T04:33:50.283Z,13.4
2022-08-26T04:35:05.529Z,13.9
2022-08-26T04:36:21.782Z,14.8
2022-08-26T04:37:38.008Z,14.2
2022-08-26T04:38:54.266Z,13.6
2022-08-26T04:40:10.486Z,13.8
2022-08-26T04:41:26.727Z,13.7
2022-08-26T04:42:42.962Z,13.9
2022-08-26T04:43:59.205Z,14
2022-08-26T04:45:15.458Z,14.5
2022-08-26T04:46:31.685Z,14.4
2022-08-26T04:47:47.924Z,14.4
2022-08-26T04:49:04.180Z,15.6
2022-08-26T04:50:20.418Z,14.3
2022-08-26T04:51:35.677Z,16.2
2022-08-26T04:52:51.915Z,15.4
2022-08-26T04:54:08.157Z,15.5
2022-08-26T04:55:24.391Z,15.7
2022-08-26T04:56:40.636Z,15.6
2022-08-26T04:57:56.864Z,15.2
2022-08-26T04:59:13.116Z,16.9
2022-08-26T05:00:29.355Z,15.6
2022-08-26T05:01:45.578Z,14.3
2022-08-26T05:03:01.836Z,14.9
2022-08-26T05:04:18.058Z,15.1
2022-08-26T05:05:34.320Z,16.5
2022-08-26T05:06:50.541Z,16.4
2022-08-26T05:08:05.808Z,16
2022-08-26T05:09:22.036Z,15.7
2022-08-26T05:10:38.276Z,16.9
2022-08-26T05:11:54.537Z,16.5
2022-08-26T05:13:10.746Z,17.1
2022-08-26T05:14:26.986Z,16.7
2022-08-26T05:15:43.241Z,17.3
2022-08-26T05:16:59.475Z,15.9
2022-08-26T05:18:15.702Z,17.4
2022-08-26T05:19:31.942Z,17.2
2022-08-26T05:20:48.183Z,17.1
2022-08-26T05:22:04.422Z,17.9
2022-08-26T05:23:20.664Z,17.7
2022-08-26T05:24:35.919Z,18.4
2022-08-26T05:25:52.164Z,17.6
2022-08-26T05:27:08.396Z,17.6
2022-08-26T05:28:24.632Z,18.5
2022-08-26T05:29:40.869Z,17.8
2022-08-26T05:30:57.121Z,17.7
2022-08-26T05:32:13.351Z,17.7
2022-08-26T05:33:29.586Z,18.4
2022-08-26T05:34:45.830Z,18.3
2022-08-26T05:36:02.093Z,18.3
2022-08-26T05:37:18.332Z,18.8
2022-08-26T05:38:34.554Z,19.2
2022-08-26T05:39:50.816Z,18.4
2022-08-26T05:41:06.039Z,17.8
2022-08-26T05:42:22.283Z,17.8
2022-08-26T05:43:38.534Z,18.6
2022-08-26T05:44:54.768Z,19.3
2022-08-26T05:46:11.007Z,17.9
2022-08-26T05:47:27.236Z,17.8
2022-08-26T05:48:42.501Z,17.6
2022-08-26T05:49:58.739Z,18.2
2022-08-26T05:51:14.976Z,17.1
2022-08-26T05:52:31.237Z,17.6
2022-08-26T05:53:47.472Z,19.3
2022-08-26T05:55:03.717Z,18.6
2022-08-26T05:56:19.941Z,17.8
2022-08-26T05:57:36.172Z,17.7
2022-08-26T05:58:52.431Z,18.2
2022-08-26T06:00:08.663Z,18.6
2022-08-26T06:01:24.894Z,17.4
2022-08-26T06:02:41.133Z,17.5
2022-08-26T06:03:57.380Z,18.4
2022-08-26T06:05:12.626Z,17.7
2022-08-26T06:06:28.885Z,18
2022-08-26T06:07:45.140Z,17.3
2022-08-26T06:09:01.351Z,17
2022-08-26T06:10:17.590Z,17.6
2022-08-26T06:11:33.833Z,16.8
2022-08-26T06:12:50.068Z,17.3
2022-08-26T06:14:06.332Z,17.3
2022-08-26T06:15:22.546Z,17.3
2022-08-26T06:16:38.781Z,16.3
2022-08-26T06:17:55.026Z,15.9
2022-08-26T06:19:11.256Z,15.7
2022-08-26T06:20:27.515Z,15.9
2022-08-26T06:21:42.754Z,17.4
2022-08-26T06:22:58.991Z,15.5
2022-08-26T06:24:15.228Z,16.1
2022-08-26T06:25:31.476Z,15.1
2022-08-26T06:26:47.722Z,15.9
2022-08-26T06:28:03.955Z,16.9
2022-08-26T06:29:20.188Z,17.2
2022-08-26T06:30:36.451Z,19
2022-08-26T06:31:52.673Z,20.8
2022-08-26T06:33:08.921Z,17.4
2022-08-26T06:34:25.145Z,15.3
2022-08-26T06:35:41.382Z,14.8
2022-08-26T06:36:57.630Z,13.9
2022-08-26T06:38:12.875Z,14.7
2022-08-26T06:39:29.128Z,15.1
2022-08-26T06:40:45.384Z,15.1
2022-08-26T06:42:01.593Z,13.9
2022-08-26T06:43:17.839Z,13
2022-08-26T06:44:34.106Z,14.8
2022-08-26T06:45:50.313Z,13.3
2022-08-26T06:47:06.546Z,13.4
2022-08-26T06:48:22.799Z,13.5
2022-08-26T06:49:39.029Z,13.1
2022-08-26T06:50:55.261Z,14.2
2022-08-26T06:52:11.528Z,12.5
2022-08-26T06:53:27.751Z,14
2022-08-26T06:54:43.003Z,12.7
2022-08-26T06:55:59.270Z,13.2
2022-08-26T06:57:15.481Z,13.1
2022-08-26T06:58:31.712Z,14.4
2022-08-26T06:59:47.953Z,13.9
2022-08-26T07:01:04.187Z,12.5
2022-08-26T07:02:20.436Z,13
2022-08-26T07:03:36.663Z,12.5
2022-08-26T07:04:52.908Z,12.2
2022-08-26T07:06:09.155Z,12.7
2022-08-26T07:07:25.405Z,12.3
2022-08-26T07:08:41.623Z,12.2
2022-08-26T07:09:57.857Z,12.9
2022-08-26T07:11:13.118Z,12.7
2022-08-26T07:12:29.358Z,12.4
2022-08-26T07:13:45.598Z,12.9
2022-08-26T07:15:01.854Z,12.5
2022-08-26T07:16:18.082Z,13.2
2022-08-26T07:17:34.307Z,12.7
2022-08-26T07:18:50.581Z,11.9
2022-08-26T07:20:06.784Z,12.1
2022-08-26T07:21:23.045Z,12.3
2022-08-26T07:22:39.297Z,12.5
2022-08-26T07:23:55.513Z,12.4
2022-08-26T07:25:11.738Z,12.6
2022-08-26T07:26:27.989Z,12
2022-08-26T07:27:43.252Z,11.9
2022-08-26T07:28:59.474Z,12.1
2022-08-26T07:30:15.752Z,12.5
2022-08-26T07:31:31.972Z,11.9
2022-08-26T07:32:48.212Z,11.9
2022-08-26T07:34:04.433Z,12.7
2022-08-26T07:35:20.667Z,12.5
2022-08-26T07:36:36.931Z,11.5
2022-08-26T07:37:53.156Z,12.3
2022-08-26T07:39:09.378Z,12.3
2022-08-26T07:40:25.621Z,11.2
2022-08-26T07:41:41.871Z,12.7
2022-08-26T07:42:58.111Z,11.8
2022-08-26T07:44:13.349Z,11.9
2022-08-26T07:45:29.597Z,12
2022-08-26T07:46:45.824Z,12.3
2022-08-26T07:48:02.076Z,12.1
2022-08-26T07:49:18.327Z,11.2
2022-08-26T07:50:34.539Z,12.7
2022-08-26T07:51:50.790Z,10.7
2022-08-26T07:53:07.031Z,11.8
2022-08-26T07:54:23.253Z,10.7
2022-08-26T07:55:39.500Z,11.5
2022-08-26T07:56:55.749Z,11.6
2022-08-26T07:58:11.972Z,12.4
2022-08-26T07:59:28.245Z,11.2
2022-08-26T08:00:43.460Z,11.5
2022-08-26T08:01:59.714Z,11.6
2022-08-26T08:03:15.946Z,10.7
2022-08-26T08:04:32.176Z,11.9
2022-08-26T08:05:48.450Z,11.5
2022-08-26T08:07:04.658Z,11.6
2022-08-26T08:08:20.901Z,12.1
2022-08-26T08:09:37.140Z,11.8
2022-08-26T08:10:53.380Z,11
2022-08-26T08:12:09.617Z,11.6
2022-08-26T08:13:25.847Z,11.8
2022-08-26T08:14:42.104Z,11.7
2022-08-26T08:15:58.317Z,11.7
2022-08-26T08:17:13.601Z,11.4
2022-08-26T08:18:29.823Z,12.2
2022-08-26T08:19:46.050Z,12.1
2022-08-26T08:21:02.292Z,11.8
2022-08-26T08:22:18.550Z,11
2022-08-26T08:23:34.767Z,11.2
2022-08-26T08:24:51.011Z,10.9
2022-08-26T08:26:07.245Z,10.7
2022-08-26T08:27:23.502Z,11.3
2022-08-26T08:28:39.728Z,11
2022-08-26T08:29:55.953Z,10.6
2022-08-26T08:31:12.204Z,11.5
2022-08-26T08:32:28.439Z,10.1
2022-08-26T08:33:43.687Z,10.3
2022-08-26T08:34:59.954Z,11.2
2022-08-26T08:36:16.176Z,10.6
2022-08-26T08:37:32.424Z,10.4
2022-08-26T08:38:48.642Z,10.3
2022-08-26T08:40:04.000Z,11.3
2022-08-26T08:41:21.115Z,10.2
2022-08-26T08:42:37.349Z,11.2
2022-08-26T08:43:53.599Z,10.3
2022-08-26T08:45:09.830Z,10.3
2022-08-26T08:46:26.089Z,11.3
2022-08-26T08:47:42.311Z,11.1
2022-08-26T08:48:58.544Z,11.6
2022-08-26T08:50:13.825Z,11.8
2022-08-26T08:51:30.037Z,10.5
2022-08-26T08:52:46.308Z,10.9
2022-08-26T08:54:02.517Z,10.6
2022-08-26T08:55:18.749Z,10.7
2022-08-26T08:56:34.982Z,9.9
2022-08-26T08:57:51.255Z,10.6
2022-08-26T08:59:07.469Z,10.8
2022-08-26T09:00:23.707Z,10.8
2022-08-26T09:01:39.955Z,11.3
2022-08-26T09:02:56.192Z,11.3
2022-08-26T09:04:12.428Z,10.4
2022-08-26T09:05:28.667Z,10.5
2022-08-26T09:06:43.915Z,13.9
2022-08-26T09:08:00.146Z,12.2
2022-08-26T09:09:16.394Z,11.5
2022-08-26T09:10:32.636Z,13.4
2022-08-26T09:11:48.867Z,11.7
2022-08-26T09:13:05.104Z,12.6
2022-08-26T09:14:21.353Z,12.3
2022-08-26T09:15:37.578Z,10.6
2022-08-26T09:16:53.834Z,10.2
2022-08-26T09:18:10.083Z,10.1
2022-08-26T09:19:26.301Z,9.5
2022-08-26T09:20:42.546Z,9.6
2022-08-26T09:21:58.789Z,10.6
2022-08-26T09:23:14.044Z,9.3
2022-08-26T09:24:30.276Z,9.4
2022-08-26T09:25:46.516Z,9.5
2022-08-26T09:27:02.753Z,8.9
2022-08-26T09:28:18.987Z,9.2
2022-08-26T09:29:35.232Z,8.9
2022-08-26T09:30:51.466Z,9.4
2022-08-26T09:32:07.714Z,9.2
2022-08-26T09:33:23.951Z,9.2
2022-08-26T09:34:40.176Z,8.9
2022-08-26T09:35:56.420Z,8.7
2022-08-26T09:37:12.660Z,8.7
2022-08-26T09:38:28.931Z,8.1
2022-08-26T09:39:44.149Z,8.6
2022-08-26T09:41:00.387Z,8.4
2022-08-26T09:42:16.627Z,9.2
2022-08-26T09:43:32.892Z,9
2022-08-26T09:44:49.111Z,8.6
2022-08-26T09:46:05.340Z,8.8
2022-08-26T09:47:21.613Z,8.5
2022-08-26T09:48:37.829Z,8.1
2022-08-26T09:49:54.053Z,8.3
2022-08-26T09:51:10.302Z,7.2
2022-08-26T09:52:26.530Z,7.5
2022-08-26T09:53:42.777Z,7.7
2022-08-26T09:54:59.014Z,7.4
2022-08-26T09:56:14.271Z,7.4
2022-08-26T09:57:30.517Z,7.4
2022-08-26T09:58:46.756Z,7
2022-08-26T10:00:02.982Z,6.6
2022-08-26T10:01:19.222Z,7
2022-08-26T10:02:35.491Z,6.6
2022-08-26T10:03:50.755Z,6.5
2022-08-26T10:05:06.976Z,7
2022-08-26T10:06:23.196Z,7.4
2022-08-26T10:07:39.436Z,6.9
2022-08-26T10:08:55.682Z,6.9
2022-08-26T10:10:11.931Z,6.3
2022-08-26T10:11:28.165Z,7
2022-08-26T10:12:44.397Z,7.2
2022-08-26T10:14:00.669Z,6.5
2022-08-26T10:15:16.874Z,6.7
2022-08-26T10:16:33.119Z,6.4
2022-08-26T10:17:49.355Z,6.7
2022-08-26T10:19:05.634Z,6.2
2022-08-26T10:20:20.862Z,6
2022-08-26T10:21:37.101Z,6.1
2022-08-26T10:22:53.331Z,6.4
2022-08-26T10:24:09.567Z,6.1
2022-08-26T10:25:25.804Z,6.3
2022-08-26T10:26:42.041Z,6.6
2022-08-26T10:27:58.286Z,6
2022-08-26T10:29:14.535Z,6.7
2022-08-26T10:30:30.777Z,6.7
2022-08-26T10:31:47.007Z,6.4
2022-08-26T10:33:03.269Z,6.5
2022-08-26T10:34:19.483Z,6.4
2022-08-26T10:35:35.738Z,6.7
2022-08-26T10:36:51.012Z,6.8
2022-08-26T10:38:07.215Z,6.1
2022-08-26T10:39:23.456Z,6.9
2022-08-26T10:40:39.705Z,5.8
2022-08-26T10:41:55.953Z,6
2022-08-26T10:43:12.174Z,5.9
2022-08-26T10:44:28.426Z,6.3
2022-08-26T10:45:44.686Z,5.7
2022-08-26T10:47:00.913Z,6.2
2022-08-26T10:48:17.147Z,6.7
2022-08-26T10:49:33.382Z,6.4
2022-08-26T10:50:49.618Z,6.2
2022-08-26T10:52:05.885Z,6.6
2022-08-26T10:53:21.119Z,6
2022-08-26T10:54:37.381Z,5.6
2022-08-26T10:55:53.627Z,5.7
2022-08-26T10:57:09.839Z,5.7
2022-08-26T10:58:26.077Z,5.7
2022-08-26T10:59:42.309Z,5.5
2022-08-26T11:00:58.550Z,5.4
2022-08-26T11:02:14.821Z,6.2
2022-08-26T11:03:31.034Z,5.3
2022-08-26T11:04:47.287Z,5.3
2022-08-26T11:06:03.521Z,5.2
2022-08-26T11:07:19.748Z,5.7
2022-08-26T11:08:35.993Z,5.7
2022-08-26T11:09:51.279Z,5.9
2022-08-26T11:11:07.486Z,6.5
2022-08-26T11:12:23.723Z,5.6
2022-08-26T11:13:39.977Z,5.6
2022-08-26T11:14:56.231Z,6
2022-08-26T11:16:12.460Z,5.3
2022-08-26T11:17:28.699Z,5.6
2022-08-26T11:18:44.970Z,5.3
2022-08-26T11:20:01.164Z,5.2
2022-08-26T11:21:17.407Z,5.4
2022-08-26T11:22:33.688Z,5.6
2022-08-26T11:23:49.911Z,7
2022-08-26T11:25:06.119Z,6.4
2022-08-26T11:26:21.375Z,6.7
2022-08-26T11:27:37.652Z,7
2022-08-26T11:28:53.859Z,6
2022-08-26T11:30:10.100Z,6
2022-08-26T11:31:26.363Z,6
2022-08-26T11:32:42.586Z,6.2
2022-08-26T11:33:58.811Z,4.4
2022-08-26T11:35:15.053Z,4
2022-08-26T11:36:31.323Z,3.5
2022-08-26T11:37:47.533Z,3.8
2022-08-26T11:39:03.789Z,3.6
2022-08-26T11:40:20.015Z,2.8
2022-08-26T11:41:36.281Z,2.7
2022-08-26T11:42:51.520Z,2.2
2022-08-26T11:44:07.751Z,2.2
2022-08-26T11:45:23.990Z,2.6
2022-08-26T11:46:40.239Z,2.2
2022-08-26T11:47:56.500Z,2.5
2022-08-26T11:49:12.706Z,2.6
2022-08-26T11:50:28.985Z,2.5
2022-08-26T11:51:45.189Z,2.7
2022-08-26T11:53:01.459Z,3
2022-08-26T11:54:17.713Z,3.1
2022-08-26T11:55:33.945Z,3.1
2022-08-26T11:56:50.154Z,3.6
2022-08-26T11:58:06.389Z,2.9
2022-08-26T11:59:21.645Z,3
2022-08-26T12:00:37.880Z,3.2
2022-08-26T12:01:54.153Z,3.2
2022-08-26T12:03:10.393Z,2.9
2022-08-26T12:04:26.600Z,3.5
2022-08-26T12:05:42.870Z,3.1
2022-08-26T12:06:59.111Z,3.6
2022-08-26T12:08:15.316Z,3.7
2022-08-26T12:09:31.582Z,3.6
2022-08-26T12:10:47.840Z,3.8
2022-08-26T12:12:04.077Z,3.7
2022-08-26T12:13:20.272Z,4.5
2022-08-26T12:14:36.511Z,4.1
2022-08-26T12:15:51.766Z,4.3
2022-08-26T12:17:08.037Z,4.5
2022-08-26T12:18:24.272Z,4.2
2022-08-26T12:19:40.478Z,4.4
2022-08-26T12:20:56.756Z,3.9
2022-08-26T12:22:12.991Z,3.6
2022-08-26T12:23:29.195Z,4.3
2022-08-26T12:24:45.437Z,3.9
2022-08-26T12:26:01.689Z,4
2022-08-26T12:27:17.959Z,4.5
2022-08-26T12:28:34.186Z,4.4
2022-08-26T12:29:50.405Z,4.3
2022-08-26T12:31:06.629Z,4.6
2022-08-26T12:32:21.884Z,4.1
2022-08-26T12:33:38.125Z,4.2
2022-08-26T12:34:54.362Z,4.5
2022-08-26T12:36:10.603Z,4.3
2022-08-26T12:37:26.853Z,4.6
2022-08-26T12:38:43.074Z,4.6
2022-08-26T12:39:59.360Z,4.8
2022-08-26T12:41:15.551Z,4.4
2022-08-26T12:42:31.794Z,4
2022-08-26T12:43:48.043Z,5.1
2022-08-26T12:45:04.280Z,3.9
2022-08-26T12:46:20.550Z,4
2022-08-26T12:47:36.764Z,4.9
2022-08-26T12:48:52.046Z,4.3
2022-08-26T12:50:08.252Z,4.7
2022-08-26T12:51:24.493Z,4.1
2022-08-26T12:52:40.727Z,4.4
2022-08-26T12:53:56.958Z,4
2022-08-26T12:55:13.232Z,4.1
2022-08-26T12:56:29.434Z,3.9
2022-08-26T12:57:45.709Z,4.1
2022-08-26T12:59:01.914Z,4.3
2022-08-26T13:01:34.399Z,3.7
2022-08-26T13:02:50.666Z,4.2
2022-08-26T13:04:06.872Z,3.6
2022-08-26T13:05:22.135Z,3.3
2022-08-26T13:06:38.356Z,3.2
2022-08-26T13:07:54.616Z,3.4
2022-08-26T13:09:10.840Z,4
2022-08-26T13:10:27.114Z,3.8
2022-08-26T13:11:43.313Z,3.9
2022-08-26T13:12:59.559Z,3.7
2022-08-26T13:14:15.835Z,3.6
2022-08-26T13:15:32.035Z,3.6
2022-08-26T13:16:48.317Z,3.4
2022-08-26T13:18:04.509Z,3.7
2022-08-26T13:19:20.794Z,3.1
2022-08-26T13:20:37.034Z,3.6
2022-08-26T13:21:52.276Z,4.7
2022-08-26T13:23:08.486Z,3.7
2022-08-26T13:24:24.754Z,3.4
2022-08-26T13:25:40.974Z,3.9
2022-08-26T13:26:57.204Z,3.6
2022-08-26T13:28:13.445Z,3.7
2022-08-26T13:29:29.674Z,3.2
2022-08-26T13:30:45.956Z,3.1
2022-08-26T13:32:02.194Z,3.1
2022-08-26T13:33:18.406Z,2.8
2022-08-26T13:34:34.662Z,2.8
2022-08-26T13:35:50.904Z,2.6
2022-08-26T13:37:07.122Z,3
2022-08-26T13:38:22.365Z,3
2022-08-26T13:39:38.648Z,2.8
2022-08-26T13:40:54.842Z,2.6
2022-08-26T13:42:11.073Z,3
2022-08-26T13:43:27.361Z,3.3
2022-08-26T13:44:43.568Z,2.8
2022-08-26T13:45:59.835Z,3.3
2022-08-26T13:47:16.069Z,2.8
2022-08-26T13:48:32.279Z,2.6
2022-08-26T13:49:48.549Z,2.8
2022-08-26T13:51:04.794Z,2.6
2022-08-26T13:52:20.999Z,2.8
2022-08-26T13:53:37.274Z,3
2022-08-26T13:54:52.485Z,2.7
2022-08-26T13:56:08.721Z,2.6
2022-08-26T13:57:24.972Z,2.9
2022-08-26T13:58:41.232Z,2.8
2022-08-26T13:59:57.000Z,2.6
2022-08-26T14:01:13.676Z,2.5
2022-08-26T14:02:29.948Z,2.9
2022-08-26T14:03:46.165Z,5.4
2022-08-26T14:05:02.404Z,5.1
2022-08-26T14:06:18.646Z,4.2
2022-08-26T14:07:34.874Z,3.5
2022-08-26T14:08:51.121Z,3.1
2022-08-26T14:10:07.351Z,2.7
2022-08-26T14:11:22.601Z,3
2022-08-26T14:12:38.850Z,3.1
2022-08-26T14:13:55.092Z,3
2022-08-26T14:15:11.316Z,3.2
2022-08-26T14:16:27.562Z,3.4
2022-08-26T14:17:43.832Z,3.1
2022-08-26T14:18:59.065Z,3.1
2022-08-26T14:20:15.000Z,3.1
2022-08-26T14:21:31.541Z,2.8
2022-08-26T14:22:47.773Z,2.9
2022-08-26T14:24:04.011Z,3
2022-08-26T14:25:20.252Z,3
2022-08-26T14:26:36.488Z,3.3
2022-08-26T14:27:52.740Z,3.2
2022-08-26T14:29:08.977Z,3.3
2022-08-26T14:30:25.204Z,3.6
2022-08-26T14:31:41.461Z,3.7
2022-08-26T14:32:57.692Z,3
2022-08-26T14:34:13.932Z,3.3
2022-08-26T14:35:29.218Z,3.8
2022-08-26T14:36:45.449Z,3.3
2022-08-26T14:38:01.695Z,4.1
2022-08-26T14:39:17.900Z,3.5
2022-08-26T14:40:34.130Z,3.3
2022-08-26T14:41:50.368Z,3.9
2022-08-26T14:43:06.651Z,4.2
2022-08-26T14:44:22.866Z,3.9
2022-08-26T14:45:39.090Z,3.7
2022-08-26T14:46:55.337Z,4
2022-08-26T14:48:11.573Z,4.2
2022-08-26T14:49:27.810Z,4.6
2022-08-26T14:50:44.049Z,4.3
2022-08-26T14:51:59.300Z,4.4
2022-08-26T14:53:15.553Z,3.9
2022-08-26T14:54:31.783Z,4.2
2022-08-26T14:55:48.056Z,4
2022-08-26T14:57:04.257Z,4.3
2022-08-26T14:58:20.509Z,4.3
2022-08-26T14:59:36.743Z,4.1
2022-08-26T15:00:52.969Z,4.3
2022-08-26T15:02:09.214Z,4.3
2022-08-26T15:03:25.483Z,4.7
2022-08-26T15:04:41.686Z,5.1
2022-08-26T15:05:57.936Z,4.5
2022-08-26T15:07:14.181Z,4.7
2022-08-26T15:08:29.454Z,4.7
2022-08-26T15:09:45.656Z,4.2
2022-08-26T15:11:01.896Z,4.4
2022-08-26T15:12:18.145Z,4.7
2022-08-26T15:13:34.385Z,4.2
2022-08-26T15:14:50.655Z,4.5
2022-08-26T15:16:06.853Z,4.4
2022-08-26T15:17:23.100Z,4.5
2022-08-26T15:18:39.373Z,4
2022-08-26T15:19:55.588Z,4.8
2022-08-26T15:21:11.847Z,4.3
2022-08-26T15:22:28.063Z,4.1
2022-08-26T15:23:44.327Z,4.1
2022-08-26T15:24:59.549Z,4.5
2022-08-26T15:26:15.794Z,4.1
2022-08-26T15:27:32.031Z,4
2022-08-26T15:28:48.259Z,4
2022-08-26T15:30:04.538Z,4.3
2022-08-26T15:31:20.780Z,4.1
2022-08-26T15:32:36.980Z,4.7
2022-08-26T15:33:53.259Z,4.3
2022-08-26T15:35:09.492Z,4.1
2022-08-26T15:36:25.744Z,5.1
2022-08-26T15:37:41.976Z,4.2
2022-08-26T15:38:58.190Z,4
2022-08-26T15:40:14.425Z,4.2
2022-08-26T15:41:29.672Z,4.5
2022-08-26T15:42:45.918Z,4.5
2022-08-26T15:44:02.165Z,4.7
2022-08-26T15:45:18.391Z,4.4
2022-08-26T15:46:34.668Z,4.4
2022-08-26T15:47:50.870Z,4.6
2022-08-26T15:49:07.115Z,4.7
2022-08-26T15:50:23.360Z,4.8
2022-08-26T15:51:39.599Z,4.9
2022-08-26T15:52:55.825Z,4.7
2022-08-26T15:54:12.074Z,4.6
2022-08-26T15:55:28.337Z,5
2022-08-26T15:56:44.549Z,5
2022-08-26T15:57:59.799Z,4.9
2022-08-26T15:59:16.042Z,4.9
2022-08-26T16:00:32.281Z,4.5
2022-08-26T16:01:48.508Z,4.5
2022-08-26T16:03:04.750Z,5.2
2022-08-26T16:04:21.033Z,4.6
2022-08-26T16:05:37.230Z,4.9
2022-08-26T16:06:53.503Z,4.9
2022-08-26T16:08:09.705Z,4.4
2022-08-26T16:09:25.945Z,5.2
2022-08-26T16:10:42.192Z,4.7
2022-08-26T16:11:58.424Z,5.2
2022-08-26T16:13:14.675Z,5
2022-08-26T16:14:29.967Z,5.4
2022-08-26T16:15:46.151Z,4.9
2022-08-26T16:17:02.411Z,5
2022-08-26T16:18:18.643Z,5
2022-08-26T16:19:34.871Z,4.8
2022-08-26T16:20:51.114Z,4.7
2022-08-26T16:22:07.362Z,4.7
2022-08-26T16:23:23.604Z,5.4
2022-08-26T16:24:39.828Z,5.2
2022-08-26T16:25:56.071Z,5
2022-08-26T16:27:12.315Z,4.7
2022-08-26T16:28:28.552Z,4.7
2022-08-26T16:29:44.792Z,4.5
2022-08-26T16:31:00.040Z,4.8
2022-08-26T16:32:16.291Z,4.5
2022-08-26T16:33:32.513Z,4.5
2022-08-26T16:34:48.764Z,4.5
2022-08-26T16:36:05.037Z,4.9
2022-08-26T16:37:21.270Z,4.3
2022-08-26T16:38:37.482Z,4.4
2022-08-26T16:39:53.724Z,4.3
2022-08-26T16:41:09.952Z,4.6
2022-08-26T16:42:26.189Z,4.7
2022-08-26T16:43:42.424Z,4.9
2022-08-26T16:44:58.676Z,4.6
2022-08-26T16:46:14.901Z,4.8
2022-08-26T16:47:30.168Z,4.6
2022-08-26T16:48:46.412Z,4.9
2022-08-26T16:50:02.683Z,4.6
2022-08-26T16:51:18.925Z,4.4
2022-08-26T16:52:35.163Z,5.2
2022-08-26T16:53:51.405Z,4.5
2022-08-26T16:55:07.601Z,4.6
2022-08-26T16:56:23.847Z,4.5
2022-08-26T16:57:40.084Z,4.5
2022-08-26T16:58:56.349Z,4.6
2022-08-26T17:00:12.545Z,4.8
2022-08-26T17:01:28.793Z,4.7
2022-08-26T17:02:45.072Z,4.8
2022-08-26T17:04:00.292Z,4.5
2022-08-26T17:05:16.535Z,4.4
2022-08-26T17:06:32.800Z,4.4
2022-08-26T17:07:49.038Z,4.5
2022-08-26T17:09:05.253Z,4.5
2022-08-26T17:10:21.491Z,4.6
2022-08-26T17:11:37.715Z,4
2022-08-26T17:12:53.000Z,4.1
2022-08-26T17:14:10.205Z,3.8
2022-08-26T17:15:26.421Z,4
2022-08-26T17:16:42.674Z,3.6
2022-08-26T17:17:58.917Z,4
2022-08-26T17:19:15.148Z,4.1